createdAt,value
2019-05-15T00:02:18.268Z,52.12
2019-05-15T00:04:51.588Z,52.66
2019-05-15T00:07:25.210Z,52.68
2019-05-15T00:09:59.277Z,52.68
2019-05-15T00:12:32.987Z,52.32
2019-05-15T00:15:09.404Z,52.47
2019-05-15T00:17:43.802Z,52.14
2019-05-15T00:20:20.082Z,52.02
2019-05-15T00:22:52.753Z,52.32
2019-05-15T00:25:28.304Z,51.84
2019-05-15T00:28:01.860Z,52.35
2019-05-15T00:30:35.579Z,52.54
2019-05-15T00:33:09.451Z,52.79
2019-05-15T00:35:43.087Z,53.07
2019-05-15T00:38:18.637Z,53.47
2019-05-15T00:40:52.081Z,53.48
2019-05-15T00:43:25.752Z,53.39
2019-05-15T00:45:59.872Z,53.34
2019-05-15T00:48:33.581Z,53.62
2019-05-15T00:51:08.405Z,53.50
2019-05-15T00:53:42.223Z,53.16
2019-05-15T00:56:15.878Z,53.21
2019-05-15T00:58:49.505Z,53.45
2019-05-15T01:01:23.254Z,53.33
2019-05-15T01:03:58.617Z,53.51
2019-05-15T01:06:32.478Z,53.39
2019-05-15T01:09:08.382Z,53.69
2019-05-15T01:11:42.130Z,53.40
2019-05-15T01:14:15.844Z,54.37
2019-05-15T01:16:49.998Z,55.11
2019-05-15T01:19:23.650Z,55.96
2019-05-15T01:21:58.697Z,56.68
2019-05-15T01:24:32.390Z,57.62
2019-05-15T01:27:06.040Z,58.26
2019-05-15T01:29:44.690Z,58.83
2019-05-15T01:32:14.929Z,58.61
2019-05-15T01:34:49.185Z,59.73
2019-05-15T01:37:22.946Z,60.72
2019-05-15T01:39:58.152Z,60.04
2019-05-15T01:42:31.768Z,60.38
2019-05-15T01:45:08.726Z,60.52
2019-05-15T01:47:41.927Z,61.18
2019-05-15T01:50:18.406Z,60.92
2019-05-15T01:52:51.340Z,61.13
2019-05-15T01:55:24.953Z,61.38
2019-05-15T01:57:58.623Z,61.23
2019-05-15T02:00:32.294Z,62.04
2019-05-15T02:03:05.912Z,62.94
2019-05-15T02:05:39.603Z,52.61
2019-05-15T02:08:13.338Z,46.00
2019-05-15T02:10:49.142Z,48.47
2019-05-15T02:13:22.291Z,50.08
2019-05-15T02:15:55.996Z,51.73
2019-05-15T02:18:29.656Z,51.97
2019-05-15T02:21:06.548Z,53.00
2019-05-15T02:23:38.922Z,53.72
2019-05-15T02:26:12.578Z,54.97
2019-05-15T02:28:48.638Z,56.22
2019-05-15T02:31:21.554Z,56.82
2019-05-15T02:33:55.176Z,57.14
2019-05-15T02:36:29.442Z,58.79
2019-05-15T02:39:03.163Z,59.76
2019-05-15T02:41:39.553Z,60.13
2019-05-15T02:44:12.222Z,60.38
2019-05-15T02:46:45.905Z,61.16
2019-05-15T02:49:19.710Z,61.76
2019-05-15T02:51:53.335Z,61.49
2019-05-15T02:54:29.899Z,50.64
2019-05-15T02:57:02.206Z,48.23
2019-05-15T02:59:35.831Z,50.35
2019-05-15T03:02:10.365Z,52.76
2019-05-15T03:04:44.171Z,54.48
2019-05-15T03:07:19.322Z,55.52
2019-05-15T03:09:53.384Z,57.44
2019-05-15T03:12:29.047Z,58.09
2019-05-15T03:15:02.415Z,58.90
2019-05-15T03:17:39.735Z,60.33
2019-05-15T03:20:11.931Z,60.17
2019-05-15T03:22:45.502Z,61.86
2019-05-15T03:25:19.288Z,62.44
2019-05-15T03:27:52.834Z,50.16
2019-05-15T03:30:31.864Z,50.86
2019-05-15T03:33:09.503Z,53.75
2019-05-15T03:35:42.498Z,55.54
2019-05-15T03:38:12.643Z,57.06
2019-05-15T03:40:49.599Z,58.52
2019-05-15T03:43:21.655Z,60.31
2019-05-15T03:45:55.505Z,61.19
2019-05-15T03:48:32.046Z,62.56
2019-05-15T03:51:08.910Z,62.17
2019-05-15T03:53:41.556Z,49.49
2019-05-15T03:56:15.290Z,48.77
2019-05-15T03:58:49.543Z,52.02
2019-05-15T04:01:34.170Z,54.51
2019-05-15T04:03:59.839Z,56.55
2019-05-15T04:06:33.751Z,57.97
2019-05-15T04:09:09.690Z,59.75
2019-05-15T04:11:43.511Z,60.40
2019-05-15T04:14:19.381Z,61.74
2019-05-15T04:16:52.507Z,62.66
2019-05-15T04:19:29.346Z,50.85
2019-05-15T04:22:01.638Z,47.10
2019-05-15T04:24:39.201Z,49.94
2019-05-15T04:27:11.656Z,53.28
2019-05-15T04:29:45.277Z,55.24
2019-05-15T04:32:20.074Z,56.55
2019-05-15T04:34:53.922Z,58.15
2019-05-15T04:37:29.914Z,59.25
2019-05-15T04:40:02.630Z,60.51
2019-05-15T04:42:39.401Z,62.18
2019-05-15T04:45:12.266Z,60.93
2019-05-15T04:47:45.966Z,50.59
2019-05-15T04:50:19.730Z,50.94
2019-05-15T04:52:53.546Z,54.02
2019-05-15T04:55:29.012Z,56.28
2019-05-15T04:58:02.656Z,58.30
2019-05-15T05:00:50.524Z,59.82
2019-05-15T05:03:28.897Z,60.54
2019-05-15T05:06:01.050Z,62.19
2019-05-15T05:08:39.448Z,61.28
2019-05-15T05:11:11.828Z,51.02
2019-05-15T05:13:48.356Z,52.36
2019-05-15T05:16:21.262Z,54.94
2019-05-15T05:18:55.017Z,56.82
2019-05-15T05:21:28.720Z,58.81
2019-05-15T05:24:02.571Z,60.12
2019-05-15T05:26:38.247Z,61.80
2019-05-15T05:29:12.255Z,62.45
2019-05-15T05:31:53.836Z,62.09
2019-05-15T05:34:28.326Z,50.34
2019-05-15T05:37:02.139Z,49.69
2019-05-15T05:39:35.830Z,52.86
2019-05-15T05:42:09.525Z,55.43
2019-05-15T05:44:43.249Z,57.50
2019-05-15T05:47:18.314Z,59.09
2019-05-15T05:49:52.050Z,61.00
2019-05-15T05:52:27.867Z,62.52
2019-05-15T05:55:01.285Z,60.68
2019-05-15T05:57:35.043Z,52.61
2019-05-15T06:00:09.662Z,54.47
2019-05-15T06:02:47.740Z,56.97
2019-05-15T06:05:19.072Z,58.81
2019-05-15T06:07:51.966Z,60.46
2019-05-15T06:10:25.694Z,62.06
2019-05-15T06:12:59.439Z,61.74
2019-05-15T06:15:33.326Z,51.67
2019-05-15T06:18:08.307Z,53.13
2019-05-15T06:20:42.776Z,56.26
2019-05-15T06:23:22.293Z,58.53
2019-05-15T06:25:51.817Z,60.37
2019-05-15T06:28:25.435Z,61.50
2019-05-15T06:31:00.628Z,62.82
2019-05-15T06:33:35.705Z,61.23
2019-05-15T06:36:09.490Z,52.13
2019-05-15T06:38:43.158Z,52.20
2019-05-15T06:41:18.141Z,55.41
2019-05-15T06:43:52.027Z,57.27
2019-05-15T06:46:28.030Z,59.87
2019-05-15T06:49:01.260Z,60.98
2019-05-15T06:51:35.148Z,62.33
2019-05-15T06:54:08.915Z,62.69
2019-05-15T06:56:42.754Z,51.17
2019-05-15T06:59:18.007Z,52.72
2019-05-15T07:01:52.241Z,55.63
2019-05-15T07:04:25.959Z,58.10
2019-05-15T07:07:00.686Z,60.23
2019-05-15T07:09:34.537Z,60.59
2019-05-15T07:12:09.897Z,63.11
2019-05-15T07:14:43.651Z,61.93
2019-05-15T07:17:17.806Z,53.26
2019-05-15T07:19:51.469Z,50.56
2019-05-15T07:22:28.776Z,53.38
2019-05-15T07:25:01.561Z,55.70
2019-05-15T07:27:35.607Z,58.52
2019-05-15T07:30:12.240Z,60.34
2019-05-15T07:32:48.419Z,61.07
2019-05-15T07:35:24.294Z,63.28
2019-05-15T07:37:58.652Z,61.03
2019-05-15T07:40:32.685Z,50.40
2019-05-15T07:43:09.384Z,50.95
2019-05-15T07:45:44.463Z,53.67
2019-05-15T07:48:18.824Z,56.48
2019-05-15T07:50:52.984Z,58.74
2019-05-15T07:53:28.851Z,60.33
2019-05-15T07:56:01.800Z,62.23
2019-05-15T07:58:35.710Z,61.56
2019-05-15T08:01:10.176Z,50.82
2019-05-15T08:03:56.691Z,52.78
2019-05-15T08:06:19.600Z,55.31
2019-05-15T08:08:54.325Z,57.56
2019-05-15T08:11:28.662Z,59.68
2019-05-15T08:14:03.774Z,60.80
2019-05-15T08:16:39.584Z,62.27
2019-05-15T08:19:12.934Z,61.51
2019-05-15T08:21:51.400Z,51.03
2019-05-15T08:24:22.225Z,51.72
2019-05-15T08:26:57.994Z,54.17
2019-05-15T08:29:31.417Z,57.24
2019-05-15T08:32:05.045Z,58.79
2019-05-15T08:34:39.216Z,60.86
2019-05-15T08:37:13.129Z,62.18
2019-05-15T08:39:48.706Z,60.57
2019-05-15T08:42:22.597Z,50.42
2019-05-15T08:44:58.296Z,51.54
2019-05-15T08:47:31.785Z,54.62
2019-05-15T08:50:06.063Z,56.40
2019-05-15T08:52:39.850Z,58.33
2019-05-15T08:55:14.303Z,59.98
2019-05-15T08:57:55.570Z,61.76
2019-05-15T09:00:23.772Z,62.78
2019-05-15T09:02:58.182Z,61.50
2019-05-15T09:05:32.584Z,50.43
2019-05-15T09:08:09.071Z,50.16
2019-05-15T09:10:41.758Z,53.17
2019-05-15T09:13:15.385Z,55.60
2019-05-15T09:15:49.272Z,57.83
2019-05-15T09:18:23.014Z,59.49
2019-05-15T09:20:59.100Z,60.83
2019-05-15T09:23:32.068Z,62.34
2019-05-15T09:26:08.967Z,60.86
2019-05-15T09:28:41.569Z,50.86
2019-05-15T09:31:15.382Z,52.77
2019-05-15T09:33:50.475Z,55.84
2019-05-15T09:36:24.157Z,58.27
2019-05-15T09:38:58.493Z,60.15
2019-05-15T09:41:32.465Z,61.65
2019-05-15T09:44:08.040Z,62.78
2019-05-15T09:46:42.212Z,60.57
2019-05-15T09:49:18.098Z,53.07
2019-05-15T09:51:52.186Z,54.91
2019-05-15T09:54:25.856Z,57.49
2019-05-15T09:56:59.551Z,59.62
2019-05-15T09:59:33.798Z,61.53
2019-05-15T10:02:09.259Z,62.95
2019-05-15T10:04:42.967Z,60.79
2019-05-15T10:07:19.112Z,52.72
2019-05-15T10:09:52.542Z,54.32
2019-05-15T10:12:33.889Z,56.95
2019-05-15T10:15:01.688Z,59.02
2019-05-15T10:17:35.507Z,60.58
2019-05-15T10:20:09.422Z,62.37
2019-05-15T10:22:43.117Z,61.17
2019-05-15T10:25:19.024Z,50.89
2019-05-15T10:27:52.490Z,52.21
2019-05-15T10:30:28.354Z,55.40
2019-05-15T10:33:02.038Z,57.83
2019-05-15T10:35:35.796Z,59.53
2019-05-15T10:38:09.627Z,61.12
2019-05-15T10:40:58.452Z,62.00
2019-05-15T10:43:20.635Z,63.31
2019-05-15T10:45:54.797Z,61.36
2019-05-15T10:48:29.452Z,51.37
2019-05-15T10:51:07.143Z,51.11
2019-05-15T10:53:39.081Z,54.48
2019-05-15T10:56:12.894Z,56.42
2019-05-15T10:58:50.171Z,58.67
2019-05-15T11:01:22.574Z,59.78
2019-05-15T11:03:58.670Z,61.40
2019-05-15T11:06:31.681Z,62.66
2019-05-15T11:09:08.464Z,61.25
2019-05-15T11:11:41.835Z,51.70
2019-05-15T11:14:18.293Z,51.36
2019-05-15T11:16:51.425Z,54.13
2019-05-15T11:19:35.763Z,56.78
2019-05-15T11:22:00.814Z,58.55
2019-05-15T11:24:34.501Z,59.80
2019-05-15T11:27:09.977Z,61.45
2019-05-15T11:29:43.488Z,62.66
2019-05-15T11:32:17.216Z,61.12
2019-05-15T11:34:50.883Z,52.14
2019-05-15T11:37:24.656Z,50.01
2019-05-15T11:39:59.086Z,52.61
2019-05-15T11:42:33.301Z,55.48
2019-05-15T11:45:10.975Z,57.37
2019-05-15T11:47:44.821Z,59.19
2019-05-15T11:50:20.795Z,60.62
2019-05-15T11:52:58.575Z,61.88
2019-05-15T11:55:33.740Z,62.98
2019-05-15T11:58:09.315Z,62.31
2019-05-15T12:00:43.018Z,52.14
2019-05-15T12:03:18.879Z,53.41
2019-05-15T12:05:52.038Z,56.28
2019-05-15T12:08:25.722Z,58.44
2019-05-15T12:11:00.290Z,60.09
2019-05-15T12:13:34.285Z,61.54
2019-05-15T12:16:08.269Z,62.61
2019-05-15T12:18:41.907Z,61.50
2019-05-15T12:21:19.797Z,51.06
2019-05-15T12:23:50.914Z,51.17
2019-05-15T12:26:24.943Z,53.86
2019-05-15T12:28:59.117Z,56.59
2019-05-15T12:31:32.912Z,58.21
2019-05-15T12:34:08.932Z,59.59
2019-05-15T12:36:51.850Z,60.92
2019-05-15T12:39:22.031Z,62.15
2019-05-15T13:00:10.484Z,61.96
2019-05-15T13:02:49.215Z,63.31
2019-05-15T13:05:28.685Z,60.38
2019-05-15T13:08:02.331Z,51.52
2019-05-15T13:10:38.375Z,51.02
2019-05-15T13:13:15.639Z,53.00
2019-05-15T13:15:55.671Z,55.61
2019-05-15T13:18:29.535Z,57.62
2019-05-15T13:21:03.369Z,59.40
2019-05-15T13:23:38.719Z,60.26
2019-05-15T13:26:23.101Z,61.27
2019-05-15T13:28:48.797Z,62.62
2019-05-15T13:31:23.298Z,60.49
2019-05-15T13:33:58.890Z,51.98
2019-05-15T13:36:32.689Z,53.46
2019-05-15T13:39:07.669Z,56.20
2019-05-15T13:41:48.495Z,57.96
2019-05-15T13:44:30.131Z,59.63
2019-05-15T13:47:04.483Z,60.84
2019-05-15T13:49:42.666Z,61.57
2019-05-15T13:52:28.136Z,62.98
2019-05-15T13:55:24.753Z,61.12
2019-05-15T13:58:15.257Z,50.90
2019-05-15T14:00:49.540Z,52.76
2019-05-15T14:03:35.412Z,55.54
2019-05-15T14:06:09.828Z,57.75
2019-05-15T14:08:43.933Z,59.84
2019-05-15T14:11:21.702Z,60.40
2019-05-15T14:13:54.557Z,61.63
2019-05-15T14:16:28.446Z,62.50
2019-05-15T14:19:02.276Z,61.07
2019-05-15T14:21:37.969Z,50.55
2019-05-15T14:26:43.801Z,54.39
2019-05-15T14:29:18.893Z,56.68
2019-05-15T14:31:52.745Z,58.27
2019-05-15T14:34:28.921Z,59.76
2019-05-15T14:37:01.879Z,60.70
2019-05-15T14:39:37.987Z,61.59
2019-05-15T14:42:11.184Z,62.55
2019-05-15T14:44:45.130Z,60.96
2019-05-15T14:47:19.326Z,50.89
2019-05-15T14:49:54.124Z,51.10
2019-05-15T14:52:28.076Z,53.68
2019-05-15T14:55:01.719Z,55.63
2019-05-15T14:57:35.449Z,56.93
2019-05-15T15:00:10.340Z,58.46
2019-05-15T15:02:43.907Z,59.42
2019-05-15T15:05:21.791Z,60.64
2019-05-15T15:07:53.141Z,61.73
2019-05-15T15:10:28.950Z,62.61
2019-05-15T15:13:02.450Z,61.61
2019-05-15T15:15:37.929Z,51.87
2019-05-15T15:18:11.898Z,49.23
2019-05-15T15:20:45.575Z,52.13
2019-05-15T15:23:19.174Z,54.69
2019-05-15T15:25:52.838Z,56.02
2019-05-15T15:28:28.021Z,57.88
2019-05-15T15:31:01.794Z,58.90
2019-05-15T15:34:00.259Z,60.53
2019-05-15T15:36:40.748Z,61.47
2019-05-15T15:39:14.995Z,61.70
2019-05-15T15:41:50.665Z,62.36
2019-05-15T15:44:27.906Z,60.28
2019-05-15T15:47:00.701Z,50.96
2019-05-15T15:52:13.951Z,52.36
2019-05-15T15:54:47.529Z,54.21
2019-05-15T15:57:21.033Z,55.60
2019-05-15T15:59:54.720Z,57.30
2019-05-15T16:02:28.441Z,58.28
2019-05-15T16:05:02.150Z,59.06
2019-05-15T16:07:37.955Z,59.74
2019-05-15T16:10:12.334Z,60.79
2019-05-15T16:12:46.045Z,61.42
2019-05-15T16:15:24.512Z,61.89
2019-05-15T16:17:59.459Z,62.77
2019-05-15T16:20:33.128Z,60.68
2019-05-15T16:23:08.352Z,53.66
2019-05-15T16:25:42.120Z,54.01
2019-05-15T16:28:18.276Z,55.55
2019-05-15T16:30:51.773Z,57.81
2019-05-15T16:33:25.333Z,58.99
2019-05-15T16:35:59.131Z,60.07
2019-05-15T16:38:32.685Z,60.92
2019-05-15T16:41:08.559Z,61.75
2019-05-15T16:43:41.420Z,62.30
2019-05-15T16:46:14.971Z,60.26
2019-05-15T16:48:49.455Z,53.70
2019-05-15T16:51:23.274Z,55.06
2019-05-15T16:53:58.161Z,56.94
2019-05-15T16:56:31.717Z,58.28
2019-05-15T16:59:05.274Z,58.71
2019-05-15T17:01:39.365Z,59.03
2019-05-15T17:04:12.949Z,59.49
2019-05-15T17:06:49.139Z,59.96
2019-05-15T17:09:21.988Z,60.61
2019-05-15T17:11:58.165Z,61.79
2019-05-15T17:14:32.095Z,62.38
2019-05-15T17:17:07.967Z,60.46
2019-05-15T17:19:41.678Z,49.73
2019-05-15T17:22:15.385Z,51.97
2019-05-15T17:24:49.279Z,54.49
2019-05-15T17:27:24.763Z,56.80
2019-05-15T17:29:58.528Z,57.52
2019-05-15T17:32:32.067Z,59.03
2019-05-15T17:35:10.119Z,60.25
2019-05-15T17:37:43.846Z,61.42
2019-05-15T17:40:17.876Z,62.55
2019-05-15T17:42:51.559Z,61.19
2019-05-15T17:45:25.205Z,51.54
2019-05-15T17:48:00.127Z,51.77
2019-05-15T17:50:48.232Z,54.55
2019-05-15T17:53:09.323Z,56.82
2019-05-15T17:55:42.975Z,58.85
2019-05-15T17:58:16.862Z,60.37
2019-05-15T18:00:50.376Z,61.79
2019-05-15T18:03:24.079Z,63.29
2019-05-15T18:05:59.413Z,62.38
2019-05-15T18:08:34.652Z,52.37
2019-05-15T18:11:08.421Z,53.76
2019-05-15T18:13:42.183Z,56.52
2019-05-15T18:16:18.223Z,58.98
2019-05-15T18:18:52.930Z,60.53
2019-05-15T18:21:28.917Z,61.59
2019-05-15T18:24:03.585Z,62.79
2019-05-15T18:26:38.729Z,58.77
2019-05-15T18:29:12.536Z,53.68
2019-05-15T18:31:48.051Z,55.76
2019-05-15T18:34:22.006Z,58.28
2019-05-15T18:36:57.738Z,60.04
2019-05-15T18:39:30.930Z,61.15
2019-05-15T18:42:04.736Z,62.70
2019-05-15T18:44:39.475Z,60.11
2019-05-15T18:47:13.628Z,52.65
2019-05-15T18:50:04.054Z,55.10
2019-05-15T18:52:28.777Z,57.72
2019-05-15T18:55:07.855Z,59.78
2019-05-15T18:57:41.833Z,61.33
2019-05-15T19:00:18.377Z,63.15
2019-05-15T19:02:52.479Z,60.11
2019-05-15T19:05:28.118Z,51.90
2019-05-15T19:08:01.693Z,53.02
2019-05-15T19:10:35.437Z,55.91
2019-05-15T19:13:09.336Z,57.96
2019-05-15T19:15:43.436Z,59.93
2019-05-15T19:18:18.607Z,61.85
2019-05-15T19:20:52.529Z,62.74
2019-05-15T19:23:26.368Z,62.47
2019-05-15T19:26:00.351Z,53.33
2019-05-15T19:28:34.081Z,53.52
2019-05-15T19:31:08.912Z,56.40
2019-05-15T19:33:42.838Z,58.79
2019-05-15T19:36:18.264Z,60.53
2019-05-15T19:38:52.006Z,62.38
2019-05-15T19:41:25.904Z,61.93
2019-05-15T19:43:59.726Z,52.56
2019-05-15T19:46:33.562Z,51.67
2019-05-15T19:49:08.743Z,54.54
2019-05-15T19:51:42.647Z,57.38
2019-05-15T19:54:18.405Z,59.42
2019-05-15T19:56:51.862Z,61.13
2019-05-15T19:59:25.651Z,62.97
2019-05-15T20:01:59.581Z,60.33
2019-05-15T20:04:33.677Z,53.75
2019-05-15T20:07:08.023Z,55.68
2019-05-15T20:09:42.846Z,58.26
2019-05-15T20:12:18.604Z,60.40
2019-05-15T20:14:53.037Z,62.06
2019-05-15T20:17:27.846Z,61.08
2019-05-15T20:20:03.103Z,52.26
2019-05-15T20:22:40.555Z,54.30
2019-05-15T20:25:18.327Z,57.43
2019-05-15T20:27:51.743Z,59.28
2019-05-15T20:30:28.408Z,61.24
2019-05-15T20:33:01.603Z,62.29
2019-05-15T20:35:38.451Z,61.74
2019-05-15T20:38:14.283Z,52.84
2019-05-15T20:40:49.063Z,51.16
2019-05-15T20:43:23.413Z,54.50
2019-05-15T20:45:57.733Z,57.19
2019-05-15T20:48:33.529Z,59.30
2019-05-15T20:51:08.233Z,61.21
2019-05-15T20:53:42.138Z,62.84
2019-05-15T20:56:16.124Z,60.98
2019-05-15T20:58:50.521Z,52.23
2019-05-15T21:01:24.424Z,53.81
2019-05-15T21:03:59.628Z,56.71
2019-05-15T21:06:33.583Z,58.81
2019-05-15T21:09:09.212Z,61.08
2019-05-15T21:11:42.991Z,62.58
2019-05-15T21:14:16.970Z,61.35
2019-05-15T21:16:50.877Z,52.42
2019-05-15T21:19:24.715Z,51.74
2019-05-15T21:21:58.642Z,54.95
2019-05-15T21:24:32.387Z,57.63
2019-05-15T21:27:06.374Z,59.37
2019-05-15T21:29:40.580Z,61.19
2019-05-15T21:32:14.600Z,63.24
2019-05-15T21:34:49.409Z,61.82
2019-05-15T21:37:23.377Z,52.15
2019-05-15T21:39:58.946Z,52.78
2019-05-15T21:42:32.549Z,56.02
2019-05-15T21:45:13.733Z,58.39
2019-05-15T21:47:42.132Z,60.07
2019-05-15T21:50:19.362Z,62.09
2019-05-15T21:52:52.823Z,61.35
2019-05-15T21:55:28.698Z,52.58
2019-05-15T21:58:01.911Z,51.91
2019-05-15T22:00:39.910Z,54.76
2019-05-15T22:03:13.927Z,57.33
2019-05-15T22:05:48.810Z,59.35
2019-05-15T22:08:22.692Z,61.12
2019-05-15T22:10:56.456Z,62.24
2019-05-15T22:13:31.525Z,61.89
2019-05-15T22:16:05.239Z,52.95
2019-05-15T22:18:38.799Z,53.77
2019-05-15T22:21:13.242Z,56.67
2019-05-15T22:23:46.723Z,59.04
2019-05-15T22:26:21.603Z,60.99
2019-05-15T22:28:55.097Z,62.86
2019-05-15T22:31:28.440Z,62.07
2019-05-15T22:34:01.885Z,52.39
2019-05-15T22:36:35.353Z,50.45
2019-05-15T22:39:09.595Z,53.76
2019-05-15T22:41:43.049Z,56.60
2019-05-15T22:44:18.986Z,58.74
2019-05-15T22:46:51.586Z,60.43
2019-05-15T22:49:25.058Z,61.90
2019-05-15T22:51:59.384Z,61.30
2019-05-15T22:54:34.797Z,53.04
2019-05-15T22:57:08.322Z,50.46
2019-05-15T22:59:42.957Z,53.60
2019-05-15T23:02:18.016Z,56.28
2019-05-15T23:04:51.419Z,58.56
2019-05-15T23:07:24.972Z,60.54
2019-05-15T23:09:58.761Z,61.86
2019-05-15T23:12:32.440Z,61.89
2019-05-15T23:15:08.384Z,53.64
2019-05-15T23:17:41.540Z,51.41
2019-05-15T23:20:17.413Z,54.45
2019-05-15T23:22:50.637Z,57.23
2019-05-15T23:25:24.346Z,58.77
2019-05-15T23:27:58.807Z,60.93
2019-05-15T23:30:32.240Z,62.44
2019-05-15T23:33:05.704Z,61.80
2019-05-15T23:35:41.613Z,52.51
2019-05-15T23:38:14.359Z,53.03
2019-05-15T23:40:48.304Z,56.01
2019-05-15T23:43:21.867Z,58.43
2019-05-15T23:45:55.296Z,60.48
2019-05-15T23:48:28.742Z,62.21
2019-05-15T23:51:02.198Z,61.39
2019-05-15T23:53:35.636Z,52.36
2019-05-15T23:56:09.467Z,51.88
2019-05-15T23:58:42.945Z,54.89
